ENSH/SVJ METAR and TAF weather

Enter ICAO airport designator
Station Type Date Time Source
ENSH METAR 2022/05/25 20:50 UTC NOAA

ENSH 252050Z 18012KT 9999 -RA FEW012 BKN031 09/07 Q1003 RMK WIND 150FT 18013KT


Station Type Date Time Source
ENSH Decoded METAR 2022/05/25 20:50 UTC NOAA

Svolvaer / Helle, Norway (ENSH) 68-15N 014-40E 9M
May 25, 2022 - 04:50 PM EDT / 2022.05.25 2050 UTC
Wind: from the S (180 degrees) at 14 MPH (12 KT):0
Visibility: greater than 7 mile(s):0
Sky conditions: mostly cloudy
Weather: light rain
Temperature: 48 F (9 C)
Dew Point: 44 F (7 C)
Relative Humidity: 87%
Pressure (altimeter): 29.62 in. Hg (1003 hPa)
ob: ENSH 252050Z 18012KT 9999 -RA FEW012 BKN031 09/07 Q1003 RMK WIND 150FT 18013KT
cycle: 21

Station Type Date Time Source
ENSH TAF UTC NOAA

Error!

Example: see airport list